Sunderland, Vermont
Current Conditions -  °F | °C
As of 10:54 AM on Thursday 29 Jan 2015 (Local Time) from KDDH Reporting Station
Clear Clear  
Wind Chill: 19°   Ceiling: Unl
Heat Index: 19°   Visibility: 10mi
Dew Point:   Wind: 0mph
Humidity: 47%   Direction: NA
Pressure: 30.21"   Gusts: NA
Location:  43.0661°N, 73.1407°W
Report Text: KDDH 291554Z AUTO 00000KT 10SM CLR M07/M17 A3021 RMK AO2 SLP246 T10721167
Loading
Personal Weather Stations






























Interactive Weather Map New forecast layout! Learn more

10-Day Weather Forecast

Advertisements
Track Severe Weather on mobile